Time;durP1;ratioP1;P1;durP2;ratioP2;P2;SDS_P1;SDS_P2;PMS_P1;PMS_P2;Temp;Humidity;BMP_temperature;BMP_pressure;BME280_temperature;BME280_humidity;BME280_pressure;Samples;Min_cycle;Max_cycle;Signal;HPM_P1;HPM_P2
2022/11/07 00:01:09;;;;;;;14.90;11.80;;;7.00;99.90;;;;;;5062049;28;20638;-72
2022/11/07 00:03:36;;;;;;;13.98;12.48;;;7.00;99.90;;;;;;5063729;28;20176;-72
2022/11/07 00:06:01;;;;;;;13.65;12.25;;;7.00;99.90;;;;;;5075077;28;20231;-72
2022/11/07 00:08:30;;;;;;;12.00;10.43;;;7.10;99.90;;;;;;5066509;28;20233;-72
2022/11/07 00:10:57;;;;;;;15.10;11.73;;;7.10;99.90;;;;;;5060783;28;20563;-72
2022/11/07 00:13:23;;;;;;;14.07;11.27;;;7.20;99.90;;;;;;5061459;28;20651;-72
2022/11/07 00:15:49;;;;;;;13.88;11.15;;;7.20;99.90;;;;;;5059781;28;20190;-72
2022/11/07 00:18:14;;;;;;;14.77;12.63;;;7.20;99.90;;;;;;5062360;28;20592;-72
2022/11/07 00:20:40;;;;;;;12.63;11.32;;;7.20;99.90;;;;;;5058807;28;20682;-72
2022/11/07 00:23:05;;;;;;;12.55;11.25;;;7.20;99.90;;;;;;5060452;28;20187;-72
2022/11/07 00:25:31;;;;;;;12.70;11.40;;;7.20;99.90;;;;;;5060745;28;20204;-71
2022/11/07 00:27:56;;;;;;;13.63;12.13;;;7.20;99.90;;;;;;5061481;28;20642;-71
2022/11/07 00:30:22;;;;;;;12.75;11.43;;;7.20;99.90;;;;;;5058209;28;20183;-71
2022/11/07 00:32:48;;;;;;;13.55;12.15;;;7.20;99.90;;;;;;5059038;28;20348;-72
2022/11/07 00:35:13;;;;;;;13.48;12.00;;;7.10;99.90;;;;;;5058223;28;20226;-72
2022/11/07 00:37:39;;;;;;;14.00;11.27;;;7.10;99.90;;;;;;5062467;28;20740;-71
2022/11/07 00:40:05;;;;;;;13.20;11.88;;;7.10;99.90;;;;;;5059547;28;20179;-71
2022/11/07 00:42:31;;;;;;;13.65;12.25;;;7.10;99.90;;;;;;5059284;28;20179;-71
2022/11/07 00:44:56;;;;;;;14.13;12.70;;;7.10;99.90;;;;;;5062394;28;20210;-71
2022/11/07 00:47:22;;;;;;;12.35;11.15;;;7.10;99.90;;;;;;5060931;28;20333;-71
2022/11/07 00:49:47;;;;;;;12.80;11.60;;;7.10;99.90;;;;;;5067628;28;20176;-71
2022/11/07 00:52:13;;;;;;;12.55;11.32;;;7.00;99.90;;;;;;5073116;28;20607;-71
2022/11/07 00:54:38;;;;;;;11.82;10.70;;;7.00;99.90;;;;;;5065608;28;20223;-71
2022/11/07 00:57:04;;;;;;;12.98;11.27;;;7.00;99.90;;;;;;5069723;28;20198;-71
2022/11/07 00:59:29;;;;;;;14.13;11.88;;;6.90;99.90;;;;;;5066478;28;20194;-72
2022/11/07 01:01:55;;;;;;;12.32;11.13;;;6.80;99.90;;;;;;5065633;28;20206;-72
2022/11/07 01:07:05;;;;;;;12.73;11.45;;;6.80;99.90;;;;;;5068630;28;20260;-71
2022/11/07 01:09:31;;;;;;;11.02;9.93;;;6.80;99.90;;;;;;5066195;28;20178;-71
2022/11/07 01:11:57;;;;;;;13.20;10.90;;;6.80;99.90;;;;;;5066881;28;20183;-72
2022/11/07 01:14:23;;;;;;;12.20;10.95;;;6.90;99.90;;;;;;5064738;28;20187;-72
2022/11/07 01:16:49;;;;;;;12.02;10.30;;;6.90;99.90;;;;;;5065183;28;20248;-72
2022/11/07 01:19:15;;;;;;;12.25;10.65;;;7.00;99.90;;;;;;5063899;28;20187;-72
2022/11/07 01:21:41;;;;;;;11.93;10.40;;;7.00;99.90;;;;;;5062956;28;20186;-73
2022/11/07 01:24:08;;;;;;;12.82;11.48;;;7.10;99.90;;;;;;5066284;28;20658;-73
2022/11/07 01:26:36;;;;;;;13.68;12.13;;;7.10;99.90;;;;;;5067611;28;20203;-73
2022/11/07 01:29:02;;;;;;;12.52;11.23;;;7.20;99.90;;;;;;5067409;28;20545;-73
2022/11/07 01:31:30;;;;;;;13.80;12.10;;;7.10;99.90;;;;;;5068160;28;20266;-72
2022/11/07 01:33:57;;;;;;;12.30;10.80;;;7.00;99.90;;;;;;5065542;28;20202;-73
2022/11/07 01:36:22;;;;;;;12.70;11.40;;;7.00;99.90;;;;;;5065417;28;20267;-72
2022/11/07 01:38:48;;;;;;;11.65;10.45;;;7.10;99.90;;;;;;5066378;28;20635;-72
2022/11/07 01:41:20;;;;;;;11.93;10.73;;;7.20;99.90;;;;;;5063483;28;20210;-73
2022/11/07 01:43:49;;;;;;;12.57;11.27;;;7.10;99.90;;;;;;5064531;28;20184;-73
2022/11/07 01:46:15;;;;;;;12.63;11.32;;;7.10;99.90;;;;;;5067471;28;20298;-71
2022/11/07 01:48:45;;;;;;;12.20;11.00;;;7.10;99.90;;;;;;5065657;28;21194;-75
2022/11/07 01:51:13;;;;;;;12.95;11.38;;;7.20;99.90;;;;;;5064461;28;20186;-72
2022/11/07 01:53:40;;;;;;;12.55;11.25;;;7.20;99.90;;;;;;5068490;28;20180;-72
2022/11/07 01:56:11;;;;;;;10.73;9.50;;;7.20;99.90;;;;;;5066339;28;20690;-73
2022/11/07 01:58:37;;;;;;;10.90;9.85;;;7.20;99.90;;;;;;5067012;28;20213;-72
2022/11/07 02:01:03;;;;;;;10.45;9.45;;;7.30;99.90;;;;;;5065688;28;20599;-73
2022/11/07 02:03:29;;;;;;;11.55;10.45;;;7.30;99.90;;;;;;5065138;28;20191;-72
2022/11/07 02:06:02;;;;;;;11.32;9.85;;;7.30;99.90;;;;;;5063728;28;20203;-72
2022/11/07 02:08:31;;;;;;;11.98;9.88;;;7.30;99.90;;;;;;5065830;28;20207;-75
2022/11/07 02:10:59;;;;;;;10.65;9.55;;;7.30;99.90;;;;;;5060168;28;20180;-72
2022/11/07 02:13:27;;;;;;;11.20;10.00;;;7.30;99.90;;;;;;5060918;28;20179;-72
2022/11/07 02:15:53;;;;;;;10.15;9.15;;;7.40;99.90;;;;;;5065213;28;20560;-73
2022/11/07 02:18:21;;;;;;;10.30;9.30;;;7.30;99.90;;;;;;5065674;28;20199;-73
2022/11/07 02:20:46;;;;;;;11.45;10.27;;;7.30;99.90;;;;;;5064164;28;20186;-72
2022/11/07 02:23:25;;;;;;;11.18;9.82;;;7.20;99.90;;;;;;5064139;28;20265;-72
2022/11/07 02:25:51;;;;;;;11.05;9.70;;;7.20;99.90;;;;;;5061580;28;20683;-72
2022/11/07 02:28:19;;;;;;;11.35;10.25;;;7.20;99.90;;;;;;5062973;28;20301;-72
2022/11/07 02:30:45;;;;;;;11.30;10.20;;;7.20;99.90;;;;;;5061869;28;20184;-73
2022/11/07 02:33:19;;;;;;;10.15;9.15;;;7.20;99.90;;;;;;5061398;28;20179;-73
2022/11/07 02:35:48;;;;;;;10.88;9.77;;;7.30;99.90;;;;;;5059672;28;20187;-73
2022/11/07 02:38:29;;;;;;;10.18;9.18;;;7.30;99.90;;;;;;5063218;28;20261;-73
2022/11/07 02:41:10;;;;;;;10.45;9.55;;;7.40;99.90;;;;;;5063977;28;20180;-72
2022/11/07 02:43:39;;;;;;;10.13;9.15;;;7.30;99.90;;;;;;5062734;28;20188;-73
2022/11/07 02:46:09;;;;;;;9.88;8.98;;;7.30;99.90;;;;;;5062352;28;20248;-73
2022/11/07 02:48:48;;;;;;;10.13;9.10;;;7.30;99.90;;;;;;5060504;28;20639;-75
2022/11/07 02:51:13;;;;;;;10.75;9.63;;;7.40;99.90;;;;;;5061252;28;20179;-73
2022/11/07 02:53:39;;;;;;;12.02;9.65;;;7.30;99.90;;;;;;5066117;28;20181;-72
2022/11/07 02:56:05;;;;;;;11.18;10.13;;;7.20;99.90;;;;;;5065610;28;20211;-73
2022/11/07 02:58:31;;;;;;;10.50;9.50;;;7.20;99.90;;;;;;5067365;28;20685;-73
2022/11/07 03:01:05;;;;;;;10.13;9.13;;;7.20;99.90;;;;;;5057486;28;20233;-73
2022/11/07 03:03:34;;;;;;;10.48;9.40;;;7.30;99.90;;;;;;5068713;28;20202;-73
2022/11/07 03:06:01;;;;;;;10.27;9.23;;;7.40;99.90;;;;;;5062197;28;20207;-73
2022/11/07 03:08:27;;;;;;;11.18;10.05;;;7.40;99.90;;;;;;5068918;28;20606;-73
2022/11/07 03:10:53;;;;;;;11.10;9.40;;;7.30;99.90;;;;;;5058242;28;20275;-73
2022/11/07 03:13:19;;;;;;;12.32;9.27;;;7.30;99.90;;;;;;5062590;28;20657;-73
2022/11/07 03:15:44;;;;;;;11.38;10.30;;;7.40;99.90;;;;;;5061052;28;20258;-73
2022/11/07 03:18:10;;;;;;;10.82;9.13;;;7.40;99.90;;;;;;5065918;28;20202;-73
2022/11/07 03:20:35;;;;;;;11.13;9.95;;;7.50;99.90;;;;;;5066292;28;20192;-72
2022/11/07 03:23:01;;;;;;;11.52;9.70;;;7.40;99.90;;;;;;5064507;28;20554;-73
2022/11/07 03:25:26;;;;;;;11.88;10.05;;;7.40;99.90;;;;;;5063649;28;20305;-73
2022/11/07 03:27:52;;;;;;;10.98;9.88;;;7.30;99.90;;;;;;5061984;28;20204;-72
2022/11/07 03:30:18;;;;;;;12.02;9.93;;;7.30;99.90;;;;;;5064932;28;20179;-71
2022/11/07 03:32:43;;;;;;;11.55;10.30;;;7.30;99.90;;;;;;5060180;28;20199;-73
2022/11/07 03:35:09;;;;;;;11.75;9.77;;;7.20;99.90;;;;;;5064957;28;20301;-73
2022/11/07 03:37:35;;;;;;;11.88;10.55;;;7.20;99.90;;;;;;5065803;28;20590;-73
2022/11/07 03:40:00;;;;;;;11.68;10.40;;;7.20;99.90;;;;;;5061977;28;20176;-73
2022/11/07 03:42:26;;;;;;;10.80;9.70;;;7.10;99.90;;;;;;5059922;28;20608;-72
2022/11/07 03:44:52;;;;;;;12.10;9.80;;;7.20;99.90;;;;;;5056462;28;20681;-73
2022/11/07 03:47:17;;;;;;;11.57;10.38;;;7.20;99.90;;;;;;5057847;28;20191;-72
2022/11/07 03:49:43;;;;;;;12.45;10.20;;;7.20;99.90;;;;;;5063611;28;20219;-71
2022/11/07 03:52:08;;;;;;;11.68;10.48;;;7.10;99.90;;;;;;5068428;28;20186;-71
2022/11/07 03:54:34;;;;;;;11.90;10.57;;;7.10;99.90;;;;;;5061034;28;20603;-72
2022/11/07 03:56:59;;;;;;;11.98;10.32;;;7.20;99.90;;;;;;5065875;28;20204;-72
2022/11/07 03:59:25;;;;;;;11.45;10.35;;;7.10;99.90;;;;;;5066519;28;20596;-72
2022/11/07 04:01:51;;;;;;;11.45;9.80;;;7.10;99.90;;;;;;5060247;28;20168;-73
2022/11/07 04:04:16;;;;;;;11.95;10.80;;;7.10;99.90;;;;;;5065414;28;20183;-73
2022/11/07 04:06:42;;;;;;;11.55;10.10;;;7.10;99.90;;;;;;5061722;28;20212;-72
2022/11/07 04:09:08;;;;;;;11.35;10.15;;;7.20;99.90;;;;;;5060132;28;20202;-73
2022/11/07 04:17:20;;;;;;;12.85;10.55;;;7.20;99.90;;;;;;5069453;28;20575;-73
2022/11/07 04:19:51;;;;;;;11.52;9.70;;;7.20;99.90;;;;;;5064895;28;20187;-73
2022/11/07 04:22:17;;;;;;;10.95;9.88;;;7.20;99.90;;;;;;5067459;28;20211;-73
2022/11/07 04:24:43;;;;;;;10.70;9.70;;;7.20;99.90;;;;;;5068339;28;20403;-71
2022/11/07 04:29:57;;;;;;;11.85;10.38;;;7.30;99.90;;;;;;5064641;28;20186;-71
2022/11/07 04:32:23;;;;;;;14.27;9.95;;;7.30;99.90;;;;;;5063551;28;20183;-73
2022/11/07 04:34:50;;;;;;;11.35;10.15;;;7.30;99.90;;;;;;5063180;28;20184;-72
2022/11/07 04:37:16;;;;;;;11.52;10.32;;;7.30;99.90;;;;;;5067029;28;20206;-72
2022/11/07 04:39:42;;;;;;;10.57;9.48;;;7.10;99.90;;;;;;5066180;28;20662;-73
2022/11/07 04:42:07;;;;;;;10.95;9.82;;;7.00;99.90;;;;;;5071951;28;20183;-71
2022/11/07 04:44:33;;;;;;;12.30;11.10;;;7.00;99.90;;;;;;5071394;28;20673;-72
2022/11/07 04:46:59;;;;;;;12.05;10.77;;;6.90;99.90;;;;;;5068406;28;20231;-73
2022/11/07 04:49:24;;;;;;;12.65;10.93;;;6.80;99.90;;;;;;5070436;28;20182;-73
2022/11/07 04:51:55;;;;;;;12.00;10.73;;;6.70;99.90;;;;;;5059573;28;20196;-72
2022/11/07 04:54:20;;;;;;;12.70;10.98;;;6.60;99.90;;;;;;5058363;28;20605;-73
2022/11/07 04:56:46;;;;;;;11.65;10.45;;;6.50;99.90;;;;;;5055165;28;20278;-73
2022/11/07 04:59:11;;;;;;;11.63;10.43;;;6.40;99.90;;;;;;5060927;28;20194;-73
2022/11/07 05:01:37;;;;;;;12.48;10.40;;;6.30;99.90;;;;;;5060146;28;20263;-73
2022/11/07 05:04:03;;;;;;;11.57;10.43;;;6.30;99.90;;;;;;5060529;28;20188;-73
2022/11/07 05:06:33;;;;;;;12.52;10.40;;;6.20;99.90;;;;;;5061854;28;20203;-72
2022/11/07 05:08:58;;;;;;;13.13;11.32;;;6.20;99.90;;;;;;5063774;28;20224;-73
2022/11/07 05:11:24;;;;;;;12.98;11.40;;;6.30;99.90;;;;;;5066296;28;20188;-73
2022/11/07 05:13:50;;;;;;;12.90;11.00;;;6.30;99.90;;;;;;5067017;28;20168;-72
2022/11/07 05:16:16;;;;;;;13.90;11.00;;;6.40;99.90;;;;;;5061354;28;20184;-71
2022/11/07 05:18:42;;;;;;;14.85;12.38;;;6.40;99.90;;;;;;5060546;28;20296;-73
2022/11/07 05:21:07;;;;;;;12.75;10.55;;;6.40;99.90;;;;;;5065428;28;20646;-72
2022/11/07 05:23:33;;;;;;;15.40;12.02;;;6.50;99.90;;;;;;5063114;28;20189;-72
2022/11/07 05:25:58;;;;;;;13.18;11.85;;;6.50;99.90;;;;;;5062130;28;20199;-72
2022/11/07 05:28:30;;;;;;;13.55;11.48;;;6.60;99.90;;;;;;5062257;28;20579;-73
2022/11/07 05:31:01;;;;;;;12.27;10.98;;;6.60;99.90;;;;;;5061696;28;20179;-73
2022/11/07 05:33:27;;;;;;;15.60;11.70;;;6.60;99.90;;;;;;5064418;28;20206;-73
2022/11/07 05:35:52;;;;;;;12.93;11.50;;;6.50;99.90;;;;;;5065447;28;20183;-71
2022/11/07 05:38:18;;;;;;;13.68;12.25;;;6.40;99.90;;;;;;5068789;28;20196;-73
2022/11/07 05:40:44;;;;;;;13.13;11.65;;;6.50;99.90;;;;;;5061060;28;20202;-73
2022/11/07 05:43:12;;;;;;;14.98;11.52;;;6.50;99.90;;;;;;5066030;28;20198;-72
2022/11/07 05:45:39;;;;;;;14.25;12.05;;;6.50;99.90;;;;;;5067240;28;20207;-72
2022/11/07 05:48:08;;;;;;;13.65;11.32;;;6.50;99.90;;;;;;5065760;28;20236;-72
2022/11/07 05:50:34;;;;;;;13.00;11.32;;;6.50;99.90;;;;;;5062157;28;20190;-72
2022/11/07 05:53:00;;;;;;;14.38;12.02;;;6.50;99.90;;;;;;5061489;28;20179;-72
2022/11/07 05:55:26;;;;;;;14.02;12.55;;;6.60;99.90;;;;;;5058540;28;20187;-72
2022/11/07 05:57:52;;;;;;;15.80;13.50;;;6.50;99.90;;;;;;5069110;28;20752;-72
2022/11/07 06:00:18;;;;;;;13.60;11.98;;;6.40;99.90;;;;;;5062954;28;20199;-72
2022/11/07 06:02:52;;;;;;;16.42;12.50;;;6.40;99.90;;;;;;5064431;28;20183;-72
2022/11/07 06:05:17;;;;;;;15.07;12.25;;;6.40;99.90;;;;;;5063404;28;20582;-72
2022/11/07 06:07:43;;;;;;;17.55;12.85;;;6.30;99.90;;;;;;5061928;28;20195;-72
2022/11/07 06:10:09;;;;;;;16.63;12.30;;;6.20;99.90;;;;;;5060026;28;20604;-72
2022/11/07 06:12:34;;;;;;;13.15;11.68;;;6.20;99.90;;;;;;5059273;28;20198;-72
2022/11/07 06:15:00;;;;;;;13.57;11.77;;;6.30;99.90;;;;;;5063310;28;20202;-72
2022/11/07 06:17:25;;;;;;;12.70;10.73;;;6.20;99.90;;;;;;5062975;28;20266;-72
2022/11/07 06:19:51;;;;;;;15.07;12.45;;;6.20;99.90;;;;;;5062911;28;20172;-72
2022/11/07 06:22:16;;;;;;;15.30;11.45;;;6.20;99.90;;;;;;5059509;28;20582;-72
2022/11/07 06:24:42;;;;;;;14.20;12.20;;;6.10;99.90;;;;;;5064859;28;20183;-73
2022/11/07 06:27:08;;;;;;;15.73;12.50;;;6.00;99.90;;;;;;5063805;28;20689;-73
2022/11/07 06:29:33;;;;;;;13.00;11.38;;;6.00;99.90;;;;;;5061629;28;20597;-72
2022/11/07 06:31:59;;;;;;;14.60;12.20;;;6.10;99.90;;;;;;5062762;28;20184;-73
2022/11/07 06:34:24;;;;;;;17.25;13.15;;;6.10;99.90;;;;;;5065771;28;20187;-72
2022/11/07 06:36:54;;;;;;;14.80;13.25;;;6.10;99.90;;;;;;5067591;28;20620;-72
2022/11/07 06:39:20;;;;;;;15.65;12.15;;;6.10;99.90;;;;;;5069272;28;20175;-72
2022/11/07 06:41:47;;;;;;;13.88;12.48;;;6.20;99.90;;;;;;5067832;28;20202;-73
2022/11/07 06:44:13;;;;;;;16.92;13.35;;;6.20;99.90;;;;;;5068105;28;20192;-75
2022/11/07 06:46:39;;;;;;;15.07;13.05;;;6.20;99.90;;;;;;5067167;28;20211;-75
2022/11/07 06:49:04;;;;;;;18.00;13.35;;;6.30;99.90;;;;;;5061958;28;20547;-75
2022/11/07 06:51:30;;;;;;;13.50;11.93;;;6.30;99.90;;;;;;5067024;28;20175;-73
2022/11/07 06:53:56;;;;;;;12.50;11.15;;;6.40;99.90;;;;;;5068140;28;20191;-74
2022/11/07 06:56:22;;;;;;;15.23;12.48;;;6.50;99.90;;;;;;5065808;28;20191;-73
2022/11/07 06:58:48;;;;;;;15.48;12.90;;;6.50;99.90;;;;;;5068573;28;20175;-73
2022/11/07 07:01:14;;;;;;;14.95;12.95;;;6.60;99.90;;;;;;5064219;28;20192;-73
2022/11/07 07:03:41;;;;;;;13.75;12.35;;;6.60;99.90;;;;;;5063286;28;20175;-75
2022/11/07 07:06:11;;;;;;;14.32;12.30;;;6.70;99.90;;;;;;5061557;28;20217;-76
2022/11/07 07:08:36;;;;;;;13.10;11.23;;;6.70;99.90;;;;;;5081595;28;20306;-76
2022/11/07 07:11:05;;;;;;;15.43;12.18;;;6.80;99.90;;;;;;5066364;28;20246;-76
2022/11/07 07:13:31;;;;;;;13.27;11.98;;;6.90;99.90;;;;;;5060482;28;20183;-76
2022/11/07 07:15:57;;;;;;;13.50;10.88;;;7.00;99.90;;;;;;5063153;28;20555;-76
2022/11/07 07:18:24;;;;;;;13.30;11.32;;;7.10;99.90;;;;;;5064198;28;20703;-76
2022/11/07 07:20:51;;;;;;;13.18;10.82;;;7.10;99.90;;;;;;5061373;28;20187;-76
2022/11/07 07:23:17;;;;;;;11.55;10.43;;;7.20;99.90;;;;;;5064055;28;20254;-76
2022/11/07 07:25:43;;;;;;;12.30;11.00;;;7.20;99.90;;;;;;5061833;28;20210;-73
2022/11/07 07:28:09;;;;;;;12.35;10.98;;;7.30;99.90;;;;;;5061232;28;20282;-73
2022/11/07 07:30:34;;;;;;;13.70;11.20;;;7.40;99.90;;;;;;5064291;28;20178;-73
2022/11/07 07:33:00;;;;;;;12.10;9.75;;;7.40;99.90;;;;;;5073690;28;20175;-73
2022/11/07 07:35:25;;;;;;;11.95;10.55;;;7.50;99.90;;;;;;5070029;28;20179;-73
2022/11/07 07:37:51;;;;;;;11.02;9.85;;;7.60;99.90;;;;;;5075649;28;20241;-73
2022/11/07 07:40:18;;;;;;;11.85;10.35;;;7.60;99.90;;;;;;5061085;28;20638;-76
2022/11/07 07:42:44;;;;;;;10.60;9.48;;;7.70;99.90;;;;;;5056959;28;20240;-73
2022/11/07 07:45:11;;;;;;;11.10;9.85;;;7.80;99.90;;;;;;5067981;28;20211;-73
2022/11/07 07:47:37;;;;;;;10.52;9.43;;;7.90;99.90;;;;;;5066675;28;20211;-74
2022/11/07 07:50:05;;;;;;;9.40;8.40;;;7.90;99.90;;;;;;5057081;28;20183;-76
2022/11/07 07:52:30;;;;;;;10.25;9.27;;;8.00;99.90;;;;;;5061619;28;20180;-73
2022/11/07 07:54:56;;;;;;;9.82;8.75;;;8.00;99.90;;;;;;5058229;28;20334;-73
2022/11/07 07:57:21;;;;;;;9.98;8.95;;;8.00;99.90;;;;;;5055660;28;20218;-73
2022/11/07 07:59:47;;;;;;;8.93;8.13;;;8.00;99.90;;;;;;5065545;28;20171;-73
2022/11/07 08:02:13;;;;;;;10.80;8.85;;;8.00;99.90;;;;;;5060067;28;20265;-75
2022/11/07 08:04:41;;;;;;;9.60;8.80;;;8.10;99.90;;;;;;5061075;28;20183;-73
2022/11/07 08:07:07;;;;;;;9.02;8.18;;;8.20;99.90;;;;;;5061884;28;20199;-75
2022/11/07 08:09:35;;;;;;;9.07;8.15;;;8.30;99.90;;;;;;5062490;28;20176;-75
2022/11/07 08:12:05;;;;;;;9.57;8.63;;;8.40;99.90;;;;;;5068370;28;20649;-75
2022/11/07 08:14:31;;;;;;;9.70;8.73;;;8.50;99.90;;;;;;5063477;28;20184;-75
2022/11/07 08:16:57;;;;;;;12.40;8.70;;;8.60;99.90;;;;;;5067614;28;20199;-76
2022/11/07 08:19:24;;;;;;;8.38;7.57;;;8.70;99.90;;;;;;5069974;28;20187;-76
2022/11/07 08:21:50;;;;;;;9.20;8.38;;;8.70;99.90;;;;;;5074732;28;20228;-75
2022/11/07 08:24:16;;;;;;;9.23;8.32;;;8.80;99.90;;;;;;5064271;28;20187;-75
2022/11/07 08:26:41;;;;;;;9.10;7.40;;;8.90;99.90;;;;;;5072692;28;20211;-77
2022/11/07 08:29:07;;;;;;;8.48;7.68;;;8.90;99.90;;;;;;5067481;28;20180;-74
2022/11/07 08:31:32;;;;;;;8.25;7.45;;;9.00;99.90;;;;;;5069211;28;20266;-75
2022/11/07 08:33:59;;;;;;;8.65;7.85;;;9.10;99.90;;;;;;5063560;28;20263;-75
2022/11/07 08:36:25;;;;;;;9.98;7.65;;;9.20;99.90;;;;;;5062472;28;20222;-75
2022/11/07 08:38:51;;;;;;;8.05;7.35;;;9.30;99.90;;;;;;5060702;28;20207;-75
2022/11/07 08:41:16;;;;;;;7.43;6.82;;;9.30;99.90;;;;;;5065978;28;20215;-75
2022/11/07 08:43:42;;;;;;;8.48;7.63;;;9.40;99.90;;;;;;5068011;28;20175;-75
2022/11/07 08:46:08;;;;;;;8.27;7.55;;;9.50;99.90;;;;;;5073677;28;20619;-75
2022/11/07 08:48:33;;;;;;;7.47;6.78;;;9.60;99.90;;;;;;5068226;28;20203;-75
2022/11/07 08:51:01;;;;;;;7.68;6.88;;;9.80;99.90;;;;;;5068028;28;20643;-75
2022/11/07 08:53:28;;;;;;;7.55;6.85;;;10.10;99.90;;;;;;5074695;28;20596;-79
2022/11/07 08:56:02;;;;;;;7.53;6.82;;;10.50;99.90;;;;;;5088373;28;20235;-78
2022/11/07 08:58:28;;;;;;;7.50;6.85;;;10.90;99.90;;;;;;5075286;28;20339;-75
2022/11/07 09:00:53;;;;;;;6.72;6.13;;;11.30;99.90;;;;;;5063367;28;20724;-76
2022/11/07 09:03:19;;;;;;;5.72;5.22;;;12.20;99.90;;;;;;5069311;28;20198;-76
2022/11/07 09:05:45;;;;;;;5.78;5.18;;;13.60;99.90;;;;;;5068889;28;20207;-76
2022/11/07 09:08:10;;;;;;;5.10;4.63;;;15.00;99.90;;;;;;5071436;28;20191;-76
2022/11/07 09:10:36;;;;;;;5.30;4.90;;;15.90;99.90;;;;;;5068623;28;20530;-76
2022/11/07 09:13:02;;;;;;;5.25;4.82;;;16.00;99.90;;;;;;5077771;28;20658;-77
2022/11/07 09:15:28;;;;;;;6.15;5.20;;;16.60;99.90;;;;;;5072001;28;20183;-76
2022/11/07 09:17:53;;;;;;;5.13;4.63;;;17.40;99.90;;;;;;5073842;28;20270;-77
2022/11/07 09:20:19;;;;;;;5.20;4.72;;;17.70;99.90;;;;;;5075944;28;20179;-79
2022/11/07 09:22:45;;;;;;;4.82;4.53;;;18.40;99.90;;;;;;5076271;28;20179;-79
2022/11/07 09:25:11;;;;;;;5.78;4.65;;;19.80;99.90;;;;;;5067883;28;20698;-78
2022/11/07 09:27:36;;;;;;;4.90;4.45;;;20.90;99.90;;;;;;5071579;28;20207;-79
2022/11/07 09:30:03;;;;;;;4.88;4.47;;;21.50;99.20;;;;;;5080336;28;20263;-79
2022/11/07 09:32:29;;;;;;;4.63;4.22;;;22.20;96.40;;;;;;5072983;28;20179;-79
2022/11/07 09:34:55;;;;;;;4.95;4.18;;;22.70;94.20;;;;;;5076628;28;20182;-79
2022/11/07 09:37:20;;;;;;;5.15;4.75;;;23.00;92.00;;;;;;5073833;28;20195;-79
2022/11/07 09:39:47;;;;;;;4.82;4.43;;;23.40;90.60;;;;;;5070527;28;20550;-79
2022/11/07 09:42:15;;;;;;;5.28;4.78;;;23.30;88.70;;;;;;5066194;28;20665;-80
2022/11/07 09:44:49;;;;;;;4.55;4.10;;;23.70;86.30;;;;;;5078099;28;20225;-80
2022/11/07 09:47:39;;;;;;;4.45;4.07;;;24.20;85.30;;;;;;5075011;28;20287;-80
2022/11/07 09:50:33;;;;;;;5.65;4.13;;;25.00;81.50;;;;;;5074230;28;20186;-80
2022/11/07 09:53:22;;;;;;;4.25;3.95;;;25.50;77.80;;;;;;5068062;28;20176;-80
2022/11/07 09:56:02;;;;;;;5.00;4.43;;;26.20;74.90;;;;;;5067828;28;20183;-81
2022/11/07 09:58:45;;;;;;;3.72;3.42;;;26.60;72.10;;;;;;5063940;28;20200;-79
2022/11/07 10:01:21;;;;;;;3.45;3.05;;;26.30;69.80;;;;;;5079900;28;20542;-79
2022/11/07 10:03:46;;;;;;;3.13;2.92;;;26.30;70.10;;;;;;5066623;28;20188;-79
2022/11/07 10:06:34;;;;;;;2.85;2.75;;;26.30;68.80;;;;;;5066398;28;20257;-80
2022/11/07 10:09:24;;;;;;;3.20;2.90;;;26.70;68.60;;;;;;5070797;28;20228;-80
2022/11/07 10:11:56;;;;;;;3.55;3.35;;;27.20;66.70;;;;;;5066276;28;20175;-80
2022/11/07 10:14:30;;;;;;;3.67;3.38;;;27.60;64.30;;;;;;5077093;28;20183;-82
2022/11/07 10:17:06;;;;;;;2.88;2.67;;;27.60;64.30;;;;;;5065451;28;20202;-82
2022/11/07 10:19:53;;;;;;;3.47;3.17;;;27.80;63.70;;;;;;5071796;28;20640;-78
2022/11/07 10:22:51;;;;;;;3.30;3.10;;;28.30;62.30;;;;;;5076723;28;20189;-81
2022/11/07 10:25:23;;;;;;;3.63;3.30;;;28.50;61.10;;;;;;5072085;28;20210;-80
2022/11/07 10:28:05;;;;;;;3.53;3.22;;;28.60;61.00;;;;;;5077235;28;20203;-79
2022/11/07 10:30:31;;;;;;;3.05;2.85;;;28.80;60.00;;;;;;5071852;28;20224;-81
2022/11/07 10:33:11;;;;;;;2.85;2.75;;;28.90;59.20;;;;;;5071107;28;20208;-79
2022/11/07 10:35:42;;;;;;;3.08;2.80;;;29.00;59.30;;;;;;5069969;28;20600;-76
2022/11/07 10:38:23;;;;;;;3.25;2.97;;;29.70;58.10;;;;;;5081853;28;20187;-76
2022/11/07 10:40:50;;;;;;;3.28;2.97;;;30.00;57.60;;;;;;5079172;28;20186;-78
2022/11/07 10:43:33;;;;;;;3.10;2.90;;;29.70;57.30;;;;;;5074324;28;20218;-77
2022/11/07 10:46:05;;;;;;;3.15;2.95;;;29.90;56.90;;;;;;5069522;28;20293;-77
2022/11/07 10:48:32;;;;;;;3.03;2.83;;;30.50;56.00;;;;;;5071090;28;20269;-77
2022/11/07 10:50:57;;;;;;;2.90;2.70;;;30.80;55.30;;;;;;5073853;28;20532;-77
2022/11/07 10:53:25;;;;;;;2.78;2.58;;;31.40;54.30;;;;;;5070221;28;20167;-77
2022/11/07 10:55:52;;;;;;;3.55;2.88;;;31.70;53.10;;;;;;5072393;28;20244;-77
2022/11/07 10:58:21;;;;;;;2.58;2.38;;;31.50;53.10;;;;;;5063589;28;20199;-77
2022/11/07 11:01:22;;;;;;;2.85;2.58;;;31.50;53.30;;;;;;5066218;28;20178;-77
2022/11/07 11:03:48;;;;;;;3.00;2.80;;;31.30;53.30;;;;;;5063353;28;20190;-77
2022/11/07 11:06:17;;;;;;;5.07;3.03;;;29.50;54.80;;;;;;5075952;28;20213;-77
2022/11/07 11:08:44;;;;;;;4.18;3.05;;;27.20;58.10;;;;;;5072481;28;20198;-77
2022/11/07 11:11:25;;;;;;;3.33;3.13;;;25.60;62.50;;;;;;5066416;28;20186;-77
2022/11/07 11:14:02;;;;;;;2.92;2.58;;;25.90;63.70;;;;;;5068627;28;20184;-75
2022/11/07 11:16:29;;;;;;;2.45;2.35;;;27.40;62.10;;;;;;5070221;28;20236;-77
2022/11/07 11:19:00;;;;;;;2.97;2.78;;;28.90;58.50;;;;;;5058346;28;20256;-76
2022/11/07 11:21:36;;;;;;;3.70;2.50;;;29.80;57.00;;;;;;5055089;28;20183;-77
2022/11/07 11:24:16;;;;;;;2.95;2.63;;;30.70;55.70;;;;;;5066881;28;20184;-76
2022/11/07 11:26:44;;;;;;;6.85;2.35;;;31.50;54.10;;;;;;5058699;28;20589;-76
2022/11/07 11:29:42;;;;;;;2.13;2.03;;;32.10;52.40;;;;;;5059459;28;20202;-77
2022/11/07 11:32:17;;;;;;;2.17;2.08;;;32.70;51.50;;;;;;5056306;28;20210;-75
2022/11/07 11:35:07;;;;;;;2.15;2.00;;;33.40;50.40;;;;;;5066731;28;20181;-74
2022/11/07 11:37:37;;;;;;;1.88;1.67;;;33.90;49.50;;;;;;5064687;28;20222;-74
2022/11/07 11:40:03;;;;;;;1.70;1.50;;;34.30;48.40;;;;;;5069782;28;20176;-74
2022/11/07 11:43:02;;;;;;;1.60;1.50;;;34.20;46.70;;;;;;5056358;28;20317;-74
2022/11/07 11:46:06;;;;;;;1.33;1.27;;;34.20;46.10;;;;;;5065161;28;20260;-75
2022/11/07 11:48:50;;;;;;;2.63;1.52;;;33.30;46.80;;;;;;5065267;28;20193;-75
2022/11/07 11:51:30;;;;;;;3.30;1.70;;;33.30;47.90;;;;;;5059479;28;20258;-74
2022/11/07 11:53:56;;;;;;;2.00;1.20;;;33.00;46.80;;;;;;5062687;28;20198;-77
2022/11/07 11:56:42;;;;;;;1.40;1.15;;;33.30;47.10;;;;;;5066866;28;20622;-75
2022/11/07 11:59:43;;;;;;;1.20;1.10;;;33.50;46.20;;;;;;5067195;28;20182;-75
2022/11/07 12:02:44;;;;;;;3.13;1.15;;;33.30;46.80;;;;;;5058546;28;20189;-75
2022/11/07 12:05:31;;;;;;;2.33;1.50;;;33.20;46.60;;;;;;5076552;28;20216;-76
2022/11/07 12:08:33;;;;;;;1.27;1.27;;;33.10;46.30;;;;;;5064333;28;20673;-75
2022/11/07 12:11:04;;;;;;;3.47;1.30;;;33.00;46.70;;;;;;5071393;28;20538;-77
2022/11/07 12:13:59;;;;;;;1.40;1.30;;;32.20;46.80;;;;;;5065894;28;20176;-77
2022/11/07 12:16:37;;;;;;;1.30;1.30;;;31.30;48.70;;;;;;5067686;28;20184;-75
2022/11/07 12:19:40;;;;;;;1.95;1.30;;;30.90;49.20;;;;;;5069468;28;20654;-77
2022/11/07 12:22:30;;;;;;;1.77;1.50;;;30.20;49.60;;;;;;5062130;28;20179;-77
2022/11/07 12:25:17;;;;;;;3.67;1.80;;;28.90;51.30;;;;;;5071045;28;20179;-78
2022/11/07 12:27:58;;;;;;;1.73;1.13;;;27.00;54.20;;;;;;5062830;28;20198;-76
2022/11/07 12:30:38;;;;;;;1.75;1.50;;;25.50;56.60;;;;;;5065827;28;20183;-76
2022/11/07 12:33:13;;;;;;;1.60;1.42;;;24.20;59.40;;;;;;5062217;28;20761;-77
2022/11/07 12:36:12;;;;;;;3.63;1.73;;;22.80;61.90;;;;;;5060594;28;20178;-77
2022/11/07 12:38:53;;;;;;;1.80;1.70;;;21.80;64.80;;;;;;5064704;28;20208;-76
2022/11/07 12:41:51;;;;;;;2.92;1.33;;;21.50;66.90;;;;;;5061062;28;20184;-77
2022/11/07 12:44:23;;;;;;;1.63;1.45;;;22.30;66.50;;;;;;5056161;28;20199;-76
2022/11/07 12:46:56;;;;;;;1.60;1.45;;;23.00;64.20;;;;;;5057700;28;20207;-77
2022/11/07 12:49:49;;;;;;;1.60;1.50;;;23.10;64.50;;;;;;5059365;28;20233;-77
2022/11/07 12:52:33;;;;;;;2.08;1.80;;;23.40;64.10;;;;;;5056464;28;20186;-77
2022/11/07 12:55:00;;;;;;;1.58;1.45;;;23.10;63.90;;;;;;5055654;28;20188;-77
2022/11/07 12:57:30;;;;;;;1.60;1.30;;;23.10;64.10;;;;;;5059260;28;20269;-76
2022/11/07 13:00:15;;;;;;;1.60;1.50;;;23.50;63.50;;;;;;5061638;28;20267;-76
2022/11/07 13:03:14;;;;;;;1.40;1.30;;;23.60;62.80;;;;;;5062963;28;20275;-76
2022/11/07 13:05:45;;;;;;;2.63;1.92;;;23.80;62.90;;;;;;5056661;28;20257;-76
2022/11/07 13:08:30;;;;;;;3.10;2.00;;;23.80;63.10;;;;;;5057873;28;20234;-76